createdAt,value
2024-01-25T00:00:17.339Z,0.80
2024-01-25T00:03:06.030Z,0.90
2024-01-25T00:05:34.270Z,1.00
2024-01-25T00:08:02.290Z,1.00
2024-01-25T00:10:30.073Z,1.30
2024-01-25T00:12:58.559Z,0.90
2024-01-25T00:15:26.368Z,0.90
2024-01-25T00:17:55.038Z,1.20
2024-01-25T00:20:23.152Z,0.90
2024-01-25T00:22:51.557Z,1.30
2024-01-25T00:25:19.487Z,0.90
2024-01-25T00:27:48.970Z,1.00
2024-01-25T00:30:16.817Z,1.20
2024-01-25T00:32:45.271Z,1.10
2024-01-25T00:35:15.829Z,1.00
2024-01-25T00:37:44.140Z,1.10
2024-01-25T00:40:14.939Z,1.40
2024-01-25T00:42:54.596Z,1.30
2024-01-25T00:45:24.082Z,1.20
2024-01-25T00:47:52.437Z,2.00
2024-01-25T00:50:26.974Z,1.50
2024-01-25T00:52:55.656Z,1.50
2024-01-25T00:55:24.168Z,1.40
2024-01-25T00:57:53.276Z,2.10
2024-01-25T01:00:22.193Z,1.60
2024-01-25T01:02:50.386Z,1.80
2024-01-25T01:05:19.492Z,1.70
2024-01-25T01:07:48.144Z,1.40
2024-01-25T01:10:16.213Z,1.90
2024-01-25T01:12:44.471Z,1.40
2024-01-25T01:15:12.563Z,1.30
2024-01-25T01:17:40.423Z,1.90
2024-01-25T01:20:09.015Z,2.50
2024-01-25T01:22:37.374Z,1.30
2024-01-25T01:25:06.607Z,1.90
2024-01-25T01:27:34.624Z,1.70
2024-01-25T01:30:02.700Z,1.40
2024-01-25T01:32:30.436Z,0.90
2024-01-25T01:34:58.351Z,1.50
2024-01-25T01:37:26.410Z,2.10
2024-01-25T01:39:57.390Z,1.40
2024-01-25T01:42:25.279Z,2.00
2024-01-25T01:44:54.189Z,1.30
2024-01-25T01:47:22.663Z,1.40
2024-01-25T01:49:50.818Z,1.60
2024-01-25T01:52:19.909Z,1.30
2024-01-25T01:54:49.164Z,1.90
2024-01-25T01:59:45.961Z,1.60
2024-01-25T02:02:13.856Z,2.00
2024-01-25T02:04:42.235Z,2.00
2024-01-25T02:07:10.446Z,2.00
2024-01-25T02:09:38.461Z,1.70
2024-01-25T02:12:08.544Z,1.90
2024-01-25T02:14:36.689Z,1.70
2024-01-25T02:17:05.485Z,1.70
2024-01-25T02:19:33.753Z,1.50
2024-01-25T02:22:05.451Z,1.50
2024-01-25T02:24:33.753Z,1.60
2024-01-25T02:27:02.036Z,1.40
2024-01-25T02:29:29.996Z,1.80
2024-01-25T02:31:57.763Z,1.90
2024-01-25T02:34:25.529Z,1.70
2024-01-25T02:36:53.462Z,1.50
2024-01-25T02:39:21.382Z,0.80
2024-01-25T02:41:49.068Z,1.40
2024-01-25T02:44:17.944Z,1.60
2024-01-25T02:46:46.006Z,1.30
2024-01-25T02:49:13.940Z,2.00
2024-01-25T02:51:41.948Z,1.40
2024-01-25T02:54:09.800Z,1.90
2024-01-25T02:56:37.624Z,1.40
2024-01-25T02:59:05.316Z,1.10
2024-01-25T03:01:43.303Z,1.40
2024-01-25T03:04:12.541Z,1.30
2024-01-25T03:06:41.627Z,1.80
2024-01-25T03:09:09.563Z,2.50
2024-01-25T03:11:37.346Z,1.40
2024-01-25T03:14:05.397Z,1.60
2024-01-25T03:16:33.237Z,1.60
2024-01-25T03:19:01.141Z,1.80
2024-01-25T03:21:30.401Z,1.30
2024-01-25T03:23:58.310Z,1.60
2024-01-25T03:26:28.472Z,2.00
2024-01-25T03:28:56.288Z,1.50
2024-01-25T03:31:24.075Z,1.80
2024-01-25T03:33:52.010Z,1.30
2024-01-25T03:36:19.961Z,1.10
2024-01-25T03:38:47.670Z,1.80
2024-01-25T03:41:15.429Z,1.30
2024-01-25T03:43:44.819Z,1.40
2024-01-25T03:48:41.477Z,1.20
2024-01-25T03:51:09.971Z,2.30
2024-01-25T03:53:38.719Z,1.30
2024-01-25T03:56:13.325Z,1.70
2024-01-25T03:58:41.175Z,1.40
2024-01-25T04:01:09.201Z,1.40
2024-01-25T04:03:37.757Z,1.50
2024-01-25T04:06:05.995Z,1.60
2024-01-25T04:08:33.913Z,1.90
2024-01-25T04:11:01.647Z,1.90
2024-01-25T04:13:30.022Z,1.40
2024-01-25T04:15:57.927Z,1.40
2024-01-25T04:18:25.788Z,1.30
2024-01-25T04:20:53.669Z,1.50
2024-01-25T04:23:21.379Z,2.20
2024-01-25T04:25:50.107Z,1.20
2024-01-25T04:28:17.959Z,1.00
2024-01-25T04:30:45.899Z,1.60
2024-01-25T04:33:13.742Z,1.30
2024-01-25T04:35:41.650Z,1.00
2024-01-25T04:38:09.681Z,1.00
2024-01-25T04:40:37.832Z,1.20
2024-01-25T04:43:05.803Z,1.40
2024-01-25T04:45:34.041Z,2.00
2024-01-25T04:48:02.128Z,1.40
2024-01-25T04:50:30.135Z,1.00
2024-01-25T04:52:58.276Z,1.50
2024-01-25T04:55:26.485Z,1.00
2024-01-25T04:57:54.756Z,1.20
2024-01-25T05:00:23.815Z,1.10
2024-01-25T05:02:51.588Z,1.30
2024-01-25T05:05:19.654Z,1.80
2024-01-25T05:07:47.606Z,2.00
2024-01-25T05:10:15.529Z,1.80
2024-01-25T05:12:43.555Z,1.40
2024-01-25T05:15:11.767Z,1.50
2024-01-25T05:17:40.871Z,1.90
2024-01-25T05:20:10.034Z,2.00
2024-01-25T05:22:41.428Z,1.80
2024-01-25T05:25:09.633Z,1.80
2024-01-25T05:27:37.452Z,1.40
2024-01-25T05:30:06.282Z,2.00
2024-01-25T05:32:35.439Z,1.80
2024-01-25T05:35:05.010Z,1.40
2024-01-25T05:37:34.810Z,1.60
2024-01-25T05:42:30.508Z,1.60
2024-01-25T05:44:58.441Z,1.30
2024-01-25T05:47:26.675Z,1.40
2024-01-25T05:49:54.977Z,2.30
2024-01-25T05:52:23.351Z,1.30
2024-01-25T05:54:51.717Z,2.30
2024-01-25T05:57:20.529Z,1.50
2024-01-25T05:59:48.696Z,1.40
2024-01-25T06:02:16.890Z,1.80
2024-01-25T06:04:46.107Z,2.00
2024-01-25T06:07:15.057Z,2.00
2024-01-25T06:09:43.213Z,2.40
2024-01-25T06:12:11.479Z,2.10
2024-01-25T06:14:39.387Z,1.60
2024-01-25T06:17:09.001Z,1.60
2024-01-25T06:19:37.036Z,2.60
2024-01-25T06:22:05.048Z,2.20
2024-01-25T06:24:33.428Z,2.00
2024-01-25T06:27:01.958Z,2.00
2024-01-25T06:29:29.641Z,1.70
2024-01-25T06:31:58.513Z,2.20
2024-01-25T06:34:27.566Z,1.80
2024-01-25T06:39:23.998Z,1.60
2024-01-25T06:41:51.868Z,2.20
2024-01-25T06:44:20.270Z,1.90
2024-01-25T06:46:48.049Z,1.50
2024-01-25T06:49:15.944Z,1.90
2024-01-25T06:51:44.003Z,1.60
2024-01-25T06:54:13.059Z,2.20
2024-01-25T06:56:41.151Z,1.60
2024-01-25T06:59:08.861Z,1.80
2024-01-25T07:01:37.798Z,1.80
2024-01-25T07:04:06.238Z,1.30
2024-01-25T07:06:37.257Z,1.80
2024-01-25T07:09:05.980Z,1.70
2024-01-25T07:11:33.923Z,1.60
2024-01-25T07:14:01.607Z,1.40
2024-01-25T07:16:31.556Z,1.60
2024-01-25T07:18:59.462Z,1.40
2024-01-25T07:21:27.786Z,1.20
2024-01-25T07:23:55.495Z,1.40
2024-01-25T07:26:23.640Z,1.90
2024-01-25T07:28:55.013Z,1.40
2024-01-25T07:31:22.903Z,1.90
2024-01-25T07:33:50.778Z,2.00
2024-01-25T07:36:19.782Z,2.00
2024-01-25T07:38:48.152Z,1.90
2024-01-25T07:41:16.665Z,1.70
2024-01-25T07:43:44.585Z,1.60
2024-01-25T07:46:12.551Z,1.10
2024-01-25T07:48:41.189Z,2.60
2024-01-25T07:51:14.465Z,1.40
2024-01-25T07:53:42.669Z,2.00
2024-01-25T07:56:12.026Z,1.40
2024-01-25T07:58:41.959Z,1.10
2024-01-25T08:01:10.707Z,1.80
2024-01-25T08:03:38.813Z,1.80
2024-01-25T08:06:07.297Z,1.40
2024-01-25T08:08:35.174Z,2.10
2024-01-25T08:11:03.209Z,1.30
2024-01-25T08:13:35.474Z,1.50
2024-01-25T08:16:03.947Z,1.40
2024-01-25T08:18:32.426Z,1.60
2024-01-25T08:21:02.205Z,1.70
2024-01-25T08:23:30.161Z,2.00
2024-01-25T08:25:58.001Z,1.20
2024-01-25T08:28:26.712Z,1.20
2024-01-25T08:30:54.704Z,1.20
2024-01-25T08:33:22.684Z,1.50
2024-01-25T08:35:50.663Z,1.60
2024-01-25T08:38:18.449Z,1.40
2024-01-25T08:40:46.262Z,1.50
2024-01-25T08:43:16.571Z,1.30
2024-01-25T08:45:44.949Z,0.70
2024-01-25T08:48:14.812Z,1.10
2024-01-25T08:50:42.828Z,0.90
2024-01-25T08:53:11.028Z,1.00
2024-01-25T08:55:38.827Z,1.00
2024-01-25T08:58:07.074Z,1.10
2024-01-25T09:00:35.038Z,0.60
2024-01-25T09:03:02.914Z,0.70
2024-01-25T09:05:32.808Z,0.80
2024-01-25T09:08:00.892Z,0.90
2024-01-25T09:10:29.039Z,0.60
2024-01-25T09:12:56.860Z,1.30
2024-01-25T09:15:24.640Z,1.40
2024-01-25T09:17:52.432Z,1.60
2024-01-25T09:20:20.380Z,1.50
2024-01-25T09:22:48.269Z,1.30
2024-01-25T09:25:16.889Z,1.10
2024-01-25T09:27:45.102Z,1.30
2024-01-25T09:30:13.698Z,0.80
2024-01-25T09:32:41.728Z,1.30
2024-01-25T09:35:09.770Z,0.80
2024-01-25T09:37:37.968Z,0.80
2024-01-25T09:40:07.349Z,1.40
2024-01-25T09:42:37.170Z,1.40
2024-01-25T09:45:08.330Z,1.10
2024-01-25T09:47:36.209Z,1.40
2024-01-25T09:50:06.314Z,1.40
2024-01-25T09:52:35.725Z,1.50
2024-01-25T09:55:07.903Z,1.40
2024-01-25T09:57:40.883Z,1.60
2024-01-25T10:00:13.086Z,1.50
2024-01-25T10:02:41.417Z,1.60
2024-01-25T10:05:09.551Z,1.50
2024-01-25T10:07:42.791Z,1.40
2024-01-25T10:10:12.177Z,1.20
2024-01-25T10:12:42.097Z,1.60
2024-01-25T10:15:11.612Z,1.30
2024-01-25T10:17:58.802Z,1.00
2024-01-25T10:20:32.676Z,1.40
2024-01-25T10:23:01.778Z,1.70
2024-01-25T10:25:30.462Z,1.90
2024-01-25T10:27:59.159Z,1.80
2024-01-25T10:30:28.539Z,1.60
2024-01-25T10:32:57.291Z,1.80
2024-01-25T10:35:27.755Z,1.50
2024-01-25T10:37:56.293Z,1.40
2024-01-25T10:40:24.538Z,1.00
2024-01-25T10:42:53.273Z,1.60
2024-01-25T10:45:21.489Z,1.40
2024-01-25T10:47:50.487Z,1.80
2024-01-25T10:50:18.801Z,1.50
2024-01-25T10:52:47.652Z,1.90
2024-01-25T10:55:17.717Z,2.00
2024-01-25T10:57:47.243Z,1.50
2024-01-25T11:00:17.597Z,1.30
2024-01-25T11:02:50.931Z,1.50
2024-01-25T11:05:22.939Z,1.70
2024-01-25T11:07:52.624Z,1.70
2024-01-25T11:10:22.384Z,2.20
2024-01-25T11:15:20.934Z,1.80
2024-01-25T11:17:54.029Z,2.30
2024-01-25T11:20:24.542Z,1.50
2024-01-25T11:22:57.614Z,1.70
2024-01-25T11:25:31.832Z,1.50
2024-01-25T11:28:04.714Z,2.00
2024-01-25T11:30:36.634Z,1.50
2024-01-25T11:33:09.238Z,1.60
2024-01-25T11:35:37.724Z,1.90
2024-01-25T11:38:05.660Z,2.20
2024-01-25T11:40:37.491Z,1.60
2024-01-25T11:43:12.479Z,2.00
2024-01-25T11:45:44.606Z,2.20
2024-01-25T11:48:13.316Z,1.90
2024-01-25T11:50:41.711Z,1.70
2024-01-25T11:53:10.891Z,2.00
2024-01-25T11:55:38.764Z,1.00
2024-01-25T11:58:07.659Z,1.50
2024-01-25T12:00:36.200Z,1.80
2024-01-25T12:03:04.984Z,2.00
2024-01-25T12:05:33.254Z,2.10
2024-01-25T12:08:01.594Z,2.00
2024-01-25T12:10:30.025Z,2.20
2024-01-25T12:12:58.063Z,3.10
2024-01-25T12:15:25.901Z,1.40
2024-01-25T12:17:55.254Z,2.50
2024-01-25T12:20:23.617Z,1.70
2024-01-25T12:22:51.989Z,1.90
2024-01-25T12:25:19.842Z,1.90
2024-01-25T12:27:51.603Z,2.10
2024-01-25T12:30:19.446Z,1.90
2024-01-25T12:32:50.970Z,2.10
2024-01-25T12:35:19.113Z,2.00
2024-01-25T12:37:46.965Z,1.90
2024-01-25T12:40:15.130Z,1.60
2024-01-25T12:42:43.224Z,2.10
2024-01-25T12:45:11.239Z,1.70
2024-01-25T12:47:39.089Z,1.80
2024-01-25T12:50:07.529Z,1.70
2024-01-25T12:52:35.400Z,2.00
2024-01-25T12:55:04.432Z,2.00
2024-01-25T12:57:33.131Z,2.00
2024-01-25T13:00:01.647Z,2.10
2024-01-25T13:02:30.436Z,2.20
2024-01-25T13:04:58.449Z,2.50
2024-01-25T13:07:26.456Z,2.10
2024-01-25T13:09:54.193Z,2.10
2024-01-25T13:12:22.989Z,2.70
2024-01-25T13:14:52.089Z,2.00
2024-01-25T13:17:22.448Z,1.90
2024-01-25T13:19:50.287Z,1.50
2024-01-25T13:22:22.273Z,1.60
2024-01-25T13:24:50.724Z,0.90
2024-01-25T13:27:18.872Z,1.00
2024-01-25T13:29:46.706Z,1.00
2024-01-25T13:32:14.425Z,1.20
2024-01-25T13:34:42.225Z,1.40
2024-01-25T13:37:10.112Z,1.50
2024-01-25T13:39:38.082Z,1.30
2024-01-25T13:42:06.297Z,0.90
2024-01-25T13:44:34.134Z,1.40
2024-01-25T13:47:02.909Z,1.20
2024-01-25T13:49:30.879Z,1.40
2024-01-25T13:52:01.841Z,1.20
2024-01-25T13:54:30.474Z,1.50
2024-01-25T13:56:58.435Z,1.40
2024-01-25T13:59:26.925Z,1.60
2024-01-25T14:01:54.896Z,1.00
2024-01-25T14:04:22.859Z,1.10
2024-01-25T14:06:51.545Z,1.30
2024-01-25T14:09:19.869Z,1.50
2024-01-25T14:11:47.860Z,1.10
2024-01-25T14:14:15.605Z,1.30
2024-01-25T14:16:43.478Z,1.50
2024-01-25T14:19:11.305Z,1.30
2024-01-25T14:21:39.460Z,1.80
2024-01-25T14:24:07.578Z,1.40
2024-01-25T14:26:35.319Z,1.50
2024-01-25T14:29:03.120Z,1.60
2024-01-25T14:31:30.929Z,1.20
2024-01-25T14:33:58.932Z,1.30
2024-01-25T14:36:26.952Z,1.50
2024-01-25T14:38:54.677Z,1.60
2024-01-25T14:41:22.558Z,1.00
2024-01-25T14:43:50.335Z,1.30
2024-01-25T14:46:19.194Z,1.10
2024-01-25T14:48:47.282Z,1.20
2024-01-25T14:51:15.356Z,1.60
2024-01-25T14:53:43.691Z,1.40
2024-01-25T14:56:13.610Z,1.40
2024-01-25T14:58:41.411Z,1.20
2024-01-25T15:01:09.151Z,1.70
2024-01-25T15:03:37.107Z,1.50
2024-01-25T15:06:05.299Z,1.40
2024-01-25T15:08:33.084Z,1.40
2024-01-25T15:11:01.203Z,1.80
2024-01-25T15:13:28.913Z,1.90
2024-01-25T15:15:56.941Z,1.10
2024-01-25T15:18:24.993Z,1.80
2024-01-25T15:20:54.281Z,2.00
2024-01-25T15:23:22.057Z,1.70
2024-01-25T15:25:51.067Z,1.70
2024-01-25T15:28:21.113Z,1.90
2024-01-25T15:30:49.393Z,1.90
2024-01-25T15:33:17.364Z,1.80
2024-01-25T15:35:45.351Z,2.00
2024-01-25T15:38:16.669Z,2.10
2024-01-25T15:40:45.147Z,2.00
2024-01-25T15:43:12.843Z,1.50
2024-01-25T15:45:40.584Z,2.20
2024-01-25T15:48:08.572Z,2.40
2024-01-25T15:50:36.348Z,1.80
2024-01-25T15:53:04.263Z,1.50
2024-01-25T15:55:32.303Z,2.20
2024-01-25T15:58:00.305Z,1.90
2024-01-25T16:00:28.383Z,1.60
2024-01-25T16:02:58.028Z,1.30
2024-01-25T16:05:26.797Z,1.50
2024-01-25T16:07:54.582Z,1.10
2024-01-25T16:10:22.534Z,2.40
2024-01-25T16:12:51.045Z,1.80
2024-01-25T16:15:19.721Z,1.80
2024-01-25T16:17:47.747Z,1.70
2024-01-25T16:20:17.863Z,1.30
2024-01-25T16:22:45.570Z,1.40
2024-01-25T16:25:13.616Z,1.10
2024-01-25T16:27:41.531Z,1.80
2024-01-25T16:30:10.041Z,1.50
2024-01-25T16:32:38.018Z,1.80
2024-01-25T16:35:06.379Z,2.20
2024-01-25T16:37:34.234Z,1.80
2024-01-25T16:40:02.103Z,1.70
2024-01-25T16:42:30.005Z,1.70
2024-01-25T16:44:57.814Z,2.10
2024-01-25T16:47:25.486Z,2.20
2024-01-25T16:49:53.333Z,2.40
2024-01-25T16:52:21.115Z,2.60
2024-01-25T16:54:49.197Z,2.30
2024-01-25T16:57:16.960Z,2.60
2024-01-25T16:59:44.761Z,2.30
2024-01-25T17:02:12.580Z,2.60
2024-01-25T17:04:40.495Z,2.60
2024-01-25T17:07:08.673Z,1.70
2024-01-25T17:09:36.572Z,2.00
2024-01-25T17:12:05.033Z,2.50
2024-01-25T17:14:32.746Z,1.80
2024-01-25T17:17:00.573Z,2.60
2024-01-25T17:19:28.853Z,2.60
2024-01-25T17:21:56.935Z,2.00
2024-01-25T17:24:24.847Z,3.30
2024-01-25T17:26:52.748Z,2.50
2024-01-25T17:29:20.749Z,2.10
2024-01-25T17:31:49.234Z,2.70
2024-01-25T17:34:17.653Z,2.40
2024-01-25T17:36:45.841Z,2.50
2024-01-25T17:39:14.987Z,2.50
2024-01-25T17:41:42.860Z,1.80
2024-01-25T17:44:12.955Z,1.70
2024-01-25T17:46:40.664Z,1.60
2024-01-25T17:49:09.335Z,1.90
2024-01-25T17:51:37.927Z,1.90
2024-01-25T17:54:05.862Z,1.60
2024-01-25T17:56:38.840Z,2.60
2024-01-25T17:59:08.265Z,1.90
2024-01-25T18:01:36.331Z,2.90
2024-01-25T18:04:04.487Z,1.70
2024-01-25T18:06:32.609Z,2.10
2024-01-25T18:09:00.406Z,1.80
2024-01-25T18:11:28.146Z,2.00
2024-01-25T18:13:56.984Z,2.30
2024-01-25T18:16:24.681Z,2.00
2024-01-25T18:18:52.603Z,1.70
2024-01-25T18:21:20.587Z,1.80
2024-01-25T18:23:48.772Z,1.90
2024-01-25T18:26:16.527Z,1.90
2024-01-25T18:28:44.228Z,1.50
2024-01-25T18:31:12.062Z,1.70
2024-01-25T18:33:39.926Z,2.00
2024-01-25T18:36:11.867Z,2.40
2024-01-25T18:38:40.665Z,1.90
2024-01-25T18:41:10.965Z,2.50
2024-01-25T18:43:39.217Z,1.90
2024-01-25T18:46:09.842Z,2.30
2024-01-25T18:48:37.774Z,1.80
2024-01-25T18:51:07.954Z,1.80
2024-01-25T18:53:36.672Z,1.60
2024-01-25T18:56:04.809Z,2.20
2024-01-25T18:58:33.020Z,2.10
2024-01-25T19:01:01.424Z,1.40
2024-01-25T19:03:29.528Z,2.00
2024-01-25T19:05:59.111Z,1.20
2024-01-25T19:08:28.356Z,1.80
2024-01-25T19:10:56.147Z,1.80
2024-01-25T19:13:24.838Z,1.50
2024-01-25T19:15:52.693Z,1.80
2024-01-25T19:18:20.931Z,1.40
2024-01-25T19:20:49.132Z,1.80
2024-01-25T19:23:17.030Z,2.20
2024-01-25T19:25:44.759Z,2.00
2024-01-25T19:28:15.050Z,1.70
2024-01-25T19:30:45.156Z,1.90
2024-01-25T19:33:13.291Z,1.30
2024-01-25T19:35:47.488Z,1.70
2024-01-25T19:38:15.282Z,1.30
2024-01-25T19:40:46.892Z,1.20
2024-01-25T19:43:14.696Z,1.00
2024-01-25T19:45:42.576Z,1.30
2024-01-25T19:48:10.436Z,1.50
2024-01-25T19:50:38.938Z,1.70
2024-01-25T19:53:07.893Z,1.20
2024-01-25T19:55:35.996Z,1.20
2024-01-25T19:58:05.464Z,1.20
2024-01-25T20:00:34.221Z,1.70
2024-01-25T20:03:02.429Z,1.70
2024-01-25T20:05:33.128Z,1.70
2024-01-25T20:08:01.282Z,1.50
2024-01-25T20:10:29.202Z,1.30
2024-01-25T20:12:58.217Z,1.60
2024-01-25T20:15:26.560Z,1.50
2024-01-25T20:17:54.458Z,1.20
2024-01-25T20:20:30.932Z,1.30
2024-01-25T20:23:06.190Z,1.40
2024-01-25T20:25:33.977Z,1.80
2024-01-25T20:28:01.909Z,1.60
2024-01-25T20:30:34.735Z,1.30
2024-01-25T20:33:02.669Z,1.50
2024-01-25T20:35:30.678Z,1.10
2024-01-25T20:37:58.468Z,1.70
2024-01-25T20:40:26.307Z,1.00
2024-01-25T20:42:54.035Z,1.60
2024-01-25T20:45:23.423Z,1.90
2024-01-25T20:47:51.686Z,1.50
2024-01-25T20:50:26.269Z,1.40
2024-01-25T20:53:02.318Z,1.60
2024-01-25T20:55:30.174Z,1.30
2024-01-25T20:57:58.390Z,1.70
2024-01-25T21:00:26.331Z,1.40
2024-01-25T21:02:54.573Z,1.10
2024-01-25T21:05:23.163Z,1.50
2024-01-25T21:07:51.658Z,1.40
2024-01-25T21:10:21.007Z,1.40
2024-01-25T21:12:49.372Z,1.20
2024-01-25T21:15:17.570Z,1.20
2024-01-25T21:17:45.437Z,1.50
2024-01-25T21:20:13.390Z,1.60
2024-01-25T21:22:41.099Z,0.80
2024-01-25T21:25:11.781Z,1.20
2024-01-25T21:27:40.044Z,0.90
2024-01-25T21:30:09.074Z,1.00
2024-01-25T21:32:36.818Z,1.10
2024-01-25T21:35:06.518Z,1.30
2024-01-25T21:37:35.684Z,0.80
2024-01-25T21:40:04.511Z,1.00
2024-01-25T21:42:38.260Z,1.40
2024-01-25T21:45:10.093Z,1.20
2024-01-25T21:47:39.965Z,1.20
2024-01-25T21:50:10.201Z,1.10
2024-01-25T21:52:38.236Z,0.90
2024-01-25T21:55:11.440Z,1.10
2024-01-25T21:57:45.751Z,1.10
2024-01-25T22:00:14.936Z,0.80
2024-01-25T22:02:46.468Z,0.90
2024-01-25T22:05:15.791Z,1.10
2024-01-25T22:07:44.096Z,1.10
2024-01-25T22:10:11.940Z,0.60
2024-01-25T22:12:39.693Z,1.10
2024-01-25T22:15:08.106Z,0.90
2024-01-25T22:17:36.025Z,1.00
2024-01-25T22:20:04.478Z,0.80
2024-01-25T22:22:32.234Z,1.10
2024-01-25T22:25:00.942Z,0.90
2024-01-25T22:27:28.843Z,1.10
2024-01-25T22:29:58.671Z,1.40
2024-01-25T22:32:26.476Z,0.70
2024-01-25T22:34:54.416Z,1.10
2024-01-25T22:37:22.527Z,1.10
2024-01-25T22:39:50.280Z,0.90
2024-01-25T22:42:18.070Z,0.60
2024-01-25T22:44:45.859Z,0.90
2024-01-25T22:47:13.645Z,1.00
2024-01-25T22:49:41.543Z,0.90
2024-01-25T22:52:09.265Z,0.70
2024-01-25T22:54:39.322Z,0.50
2024-01-25T22:57:07.212Z,0.80
2024-01-25T22:59:35.191Z,0.90
2024-01-25T23:02:02.973Z,0.70
2024-01-25T23:04:30.704Z,0.80
2024-01-25T23:06:58.476Z,1.00
2024-01-25T23:09:26.656Z,0.90
2024-01-25T23:11:54.712Z,0.90
2024-01-25T23:14:23.241Z,1.10
2024-01-25T23:16:50.974Z,1.00
2024-01-25T23:19:20.783Z,0.70
2024-01-25T23:21:49.199Z,0.60
2024-01-25T23:24:16.943Z,0.80
2024-01-25T23:26:44.788Z,0.80
2024-01-25T23:29:13.858Z,0.50
2024-01-25T23:31:41.591Z,1.00
2024-01-25T23:34:10.225Z,0.70
2024-01-25T23:36:38.053Z,0.90
2024-01-25T23:39:06.188Z,1.00
2024-01-25T23:41:34.528Z,0.80
2024-01-25T23:44:02.422Z,0.90
2024-01-25T23:46:30.348Z,0.70
2024-01-25T23:48:59.027Z,1.20
2024-01-25T23:51:27.231Z,0.80
2024-01-25T23:53:55.388Z,0.90
2024-01-25T23:56:23.746Z,0.60
2024-01-25T23:58:51.492Z,0.80
